sensor_id;sensor_type;location;lat;lon;timestamp;P1;durP1;ratioP1;P2;durP2;ratioP2
5491;SDS011;2768;53.540;10.224;2022-12-05T00:01:56;20.50;;;13.43;;
5491;SDS011;2768;53.540;10.224;2022-12-05T00:07:50;23.43;;;13.87;;
5491;SDS011;2768;53.540;10.224;2022-12-05T00:13:45;21.47;;;14.47;;
5491;SDS011;2768;53.540;10.224;2022-12-05T00:19:40;20.63;;;13.50;;
5491;SDS011;2768;53.540;10.224;2022-12-05T00:25:34;20.97;;;14.13;;
5491;SDS011;2768;53.540;10.224;2022-12-05T00:31:29;19.50;;;13.17;;
5491;SDS011;2768;53.540;10.224;2022-12-05T00:37:23;23.00;;;13.90;;
5491;SDS011;2768;53.540;10.224;2022-12-05T00:43:16;17.60;;;12.50;;
5491;SDS011;2768;53.540;10.224;2022-12-05T00:49:11;15.70;;;11.33;;
5491;SDS011;2768;53.540;10.224;2022-12-05T00:55:05;23.23;;;13.73;;
5491;SDS011;2768;53.540;10.224;2022-12-05T01:01:04;17.33;;;12.27;;
5491;SDS011;2768;53.540;10.224;2022-12-05T01:07:00;18.10;;;12.60;;
5491;SDS011;2768;53.540;10.224;2022-12-05T01:12:54;14.37;;;11.37;;
5491;SDS011;2768;53.540;10.224;2022-12-05T01:18:48;14.07;;;10.70;;
5491;SDS011;2768;53.540;10.224;2022-12-05T01:24:43;15.80;;;11.50;;
5491;SDS011;2768;53.540;10.224;2022-12-05T01:30:36;14.40;;;11.50;;
5491;SDS011;2768;53.540;10.224;2022-12-05T01:36:31;13.13;;;10.63;;
5491;SDS011;2768;53.540;10.224;2022-12-05T01:42:26;16.80;;;11.13;;
5491;SDS011;2768;53.540;10.224;2022-12-05T01:48:20;10.27;;;8.70;;
5491;SDS011;2768;53.540;10.224;2022-12-05T01:54:17;10.97;;;8.37;;
5491;SDS011;2768;53.540;10.224;2022-12-05T02:00:15;14.13;;;10.77;;
5491;SDS011;2768;53.540;10.224;2022-12-05T02:06:10;13.70;;;10.77;;
5491;SDS011;2768;53.540;10.224;2022-12-05T02:12:05;15.10;;;11.93;;
5491;SDS011;2768;53.540;10.224;2022-12-05T02:18:03;12.70;;;9.50;;
5491;SDS011;2768;53.540;10.224;2022-12-05T02:30:32;12.00;;;8.80;;
5491;SDS011;2768;53.540;10.224;2022-12-05T02:36:33;12.40;;;9.70;;
5491;SDS011;2768;53.540;10.224;2022-12-05T02:42:32;9.63;;;8.40;;
5491;SDS011;2768;53.540;10.224;2022-12-05T02:48:34;11.57;;;8.83;;
5491;SDS011;2768;53.540;10.224;2022-12-05T02:54:30;9.70;;;8.40;;
5491;SDS011;2768;53.540;10.224;2022-12-05T03:00:26;11.30;;;9.23;;
5491;SDS011;2768;53.540;10.224;2022-12-05T03:06:22;13.40;;;9.83;;
5491;SDS011;2768;53.540;10.224;2022-12-05T03:12:19;13.53;;;9.77;;
5491;SDS011;2768;53.540;10.224;2022-12-05T03:18:15;11.50;;;8.67;;
5491;SDS011;2768;53.540;10.224;2022-12-05T03:24:15;15.40;;;10.77;;
5491;SDS011;2768;53.540;10.224;2022-12-05T03:30:10;15.60;;;10.43;;
5491;SDS011;2768;53.540;10.224;2022-12-05T03:36:08;17.50;;;12.20;;
5491;SDS011;2768;53.540;10.224;2022-12-05T03:42:09;14.80;;;9.43;;
5491;SDS011;2768;53.540;10.224;2022-12-05T03:48:07;16.00;;;12.37;;
5491;SDS011;2768;53.540;10.224;2022-12-05T03:54:05;14.90;;;11.60;;
5491;SDS011;2768;53.540;10.224;2022-12-05T04:00:04;19.07;;;13.53;;
5491;SDS011;2768;53.540;10.224;2022-12-05T04:06:00;18.30;;;11.93;;
5491;SDS011;2768;53.540;10.224;2022-12-05T04:11:58;23.10;;;12.80;;
5491;SDS011;2768;53.540;10.224;2022-12-05T04:17:57;20.00;;;13.23;;
5491;SDS011;2768;53.540;10.224;2022-12-05T04:23:51;20.87;;;14.10;;
5491;SDS011;2768;53.540;10.224;2022-12-05T04:30:00;16.97;;;11.73;;
5491;SDS011;2768;53.540;10.224;2022-12-05T04:35:58;17.37;;;12.93;;
5491;SDS011;2768;53.540;10.224;2022-12-05T04:41:58;17.83;;;12.37;;
5491;SDS011;2768;53.540;10.224;2022-12-05T04:47:54;17.37;;;10.83;;
5491;SDS011;2768;53.540;10.224;2022-12-05T04:53:55;17.30;;;10.80;;
5491;SDS011;2768;53.540;10.224;2022-12-05T04:59:53;18.90;;;12.37;;
5491;SDS011;2768;53.540;10.224;2022-12-05T05:05:48;17.23;;;12.30;;
5491;SDS011;2768;53.540;10.224;2022-12-05T05:11:47;21.70;;;12.60;;
5491;SDS011;2768;53.540;10.224;2022-12-05T05:17:41;17.60;;;11.93;;
5491;SDS011;2768;53.540;10.224;2022-12-05T05:23:34;20.20;;;12.60;;
5491;SDS011;2768;53.540;10.224;2022-12-05T05:29:29;19.27;;;11.40;;
5491;SDS011;2768;53.540;10.224;2022-12-05T05:35:23;19.30;;;12.77;;
5491;SDS011;2768;53.540;10.224;2022-12-05T05:41:17;28.33;;;16.00;;
5491;SDS011;2768;53.540;10.224;2022-12-05T05:47:15;26.80;;;15.00;;
5491;SDS011;2768;53.540;10.224;2022-12-05T05:53:09;27.43;;;15.10;;
5491;SDS011;2768;53.540;10.224;2022-12-05T05:59:02;36.33;;;16.20;;
5491;SDS011;2768;53.540;10.224;2022-12-05T06:04:58;24.50;;;14.40;;
5491;SDS011;2768;53.540;10.224;2022-12-05T06:10:52;28.97;;;16.83;;
5491;SDS011;2768;53.540;10.224;2022-12-05T06:16:45;30.93;;;16.47;;
5491;SDS011;2768;53.540;10.224;2022-12-05T06:22:40;34.93;;;16.60;;
5491;SDS011;2768;53.540;10.224;2022-12-05T06:28:34;33.03;;;18.40;;
5491;SDS011;2768;53.540;10.224;2022-12-05T06:34:28;39.40;;;19.17;;
5491;SDS011;2768;53.540;10.224;2022-12-05T06:40:24;32.87;;;16.90;;
5491;SDS011;2768;53.540;10.224;2022-12-05T06:46:18;34.40;;;17.30;;
5491;SDS011;2768;53.540;10.224;2022-12-05T06:52:12;46.20;;;21.40;;
5491;SDS011;2768;53.540;10.224;2022-12-05T06:58:07;40.53;;;20.00;;
5491;SDS011;2768;53.540;10.224;2022-12-05T07:04:01;38.03;;;20.20;;
5491;SDS011;2768;53.540;10.224;2022-12-05T07:09:55;52.03;;;23.63;;
5491;SDS011;2768;53.540;10.224;2022-12-05T07:15:50;49.33;;;24.63;;
5491;SDS011;2768;53.540;10.224;2022-12-05T07:21:44;38.87;;;19.07;;
5491;SDS011;2768;53.540;10.224;2022-12-05T07:27:38;33.20;;;17.07;;
5491;SDS011;2768;53.540;10.224;2022-12-05T07:33:32;30.70;;;16.37;;
5491;SDS011;2768;53.540;10.224;2022-12-05T07:39:26;31.23;;;16.80;;
5491;SDS011;2768;53.540;10.224;2022-12-05T07:45:20;34.90;;;16.80;;
5491;SDS011;2768;53.540;10.224;2022-12-05T07:51:15;26.70;;;15.50;;
5491;SDS011;2768;53.540;10.224;2022-12-05T07:57:10;27.33;;;15.13;;
5491;SDS011;2768;53.540;10.224;2022-12-05T08:03:03;32.40;;;16.50;;
5491;SDS011;2768;53.540;10.224;2022-12-05T08:08:58;30.00;;;15.93;;
5491;SDS011;2768;53.540;10.224;2022-12-05T08:14:51;32.50;;;17.63;;
5491;SDS011;2768;53.540;10.224;2022-12-05T08:20:45;31.47;;;16.67;;
5491;SDS011;2768;53.540;10.224;2022-12-05T08:26:40;28.53;;;16.43;;
5491;SDS011;2768;53.540;10.224;2022-12-05T08:32:33;32.53;;;17.27;;
5491;SDS011;2768;53.540;10.224;2022-12-05T08:38:27;32.00;;;17.47;;
5491;SDS011;2768;53.540;10.224;2022-12-05T08:44:22;34.50;;;17.53;;
5491;SDS011;2768;53.540;10.224;2022-12-05T08:50:15;29.87;;;14.80;;
5491;SDS011;2768;53.540;10.224;2022-12-05T08:56:09;28.60;;;15.97;;
5491;SDS011;2768;53.540;10.224;2022-12-05T09:02:04;28.60;;;14.80;;
5491;SDS011;2768;53.540;10.224;2022-12-05T09:07:58;27.47;;;15.50;;
5491;SDS011;2768;53.540;10.224;2022-12-05T09:13:52;28.07;;;16.47;;
5491;SDS011;2768;53.540;10.224;2022-12-05T09:19:50;31.03;;;15.27;;
5491;SDS011;2768;53.540;10.224;2022-12-05T09:25:44;29.43;;;15.17;;
5491;SDS011;2768;53.540;10.224;2022-12-05T09:31:47;25.33;;;14.53;;
5491;SDS011;2768;53.540;10.224;2022-12-05T09:37:44;30.67;;;15.73;;
5491;SDS011;2768;53.540;10.224;2022-12-05T09:43:39;22.00;;;13.13;;
5491;SDS011;2768;53.540;10.224;2022-12-05T09:49:43;22.40;;;13.77;;
5491;SDS011;2768;53.540;10.224;2022-12-05T09:55:44;24.40;;;13.40;;
5491;SDS011;2768;53.540;10.224;2022-12-05T10:01:41;22.17;;;13.73;;
5491;SDS011;2768;53.540;10.224;2022-12-05T10:07:42;23.93;;;14.37;;
5491;SDS011;2768;53.540;10.224;2022-12-05T10:13:47;24.67;;;14.07;;
5491;SDS011;2768;53.540;10.224;2022-12-05T10:19:48;22.00;;;13.20;;
5491;SDS011;2768;53.540;10.224;2022-12-05T10:25:44;18.47;;;12.40;;
5491;SDS011;2768;53.540;10.224;2022-12-05T10:31:39;18.93;;;12.37;;
5491;SDS011;2768;53.540;10.224;2022-12-05T10:37:35;21.90;;;13.33;;
5491;SDS011;2768;53.540;10.224;2022-12-05T10:43:29;22.47;;;12.77;;
5491;SDS011;2768;53.540;10.224;2022-12-05T10:49:25;20.67;;;12.13;;
5491;SDS011;2768;53.540;10.224;2022-12-05T10:55:19;17.10;;;11.17;;
5491;SDS011;2768;53.540;10.224;2022-12-05T11:01:13;16.40;;;11.40;;
5491;SDS011;2768;53.540;10.224;2022-12-05T11:07:20;16.77;;;10.87;;
5491;SDS011;2768;53.540;10.224;2022-12-05T11:13:22;15.93;;;11.40;;
5491;SDS011;2768;53.540;10.224;2022-12-05T11:19:18;17.57;;;11.60;;
5491;SDS011;2768;53.540;10.224;2022-12-05T11:25:23;16.90;;;11.47;;
5491;SDS011;2768;53.540;10.224;2022-12-05T11:31:24;15.77;;;9.93;;
5491;SDS011;2768;53.540;10.224;2022-12-05T11:37:20;15.63;;;10.73;;
5491;SDS011;2768;53.540;10.224;2022-12-05T11:43:26;15.67;;;9.77;;
5491;SDS011;2768;53.540;10.224;2022-12-05T11:49:35;15.13;;;9.00;;
5491;SDS011;2768;53.540;10.224;2022-12-05T11:55:41;13.17;;;9.20;;
5491;SDS011;2768;53.540;10.224;2022-12-05T12:01:42;14.60;;;9.63;;
5491;SDS011;2768;53.540;10.224;2022-12-05T12:07:47;14.20;;;10.17;;
5491;SDS011;2768;53.540;10.224;2022-12-05T12:13:53;13.27;;;9.47;;
5491;SDS011;2768;53.540;10.224;2022-12-05T12:20:03;11.73;;;7.90;;
5491;SDS011;2768;53.540;10.224;2022-12-05T12:26:10;12.90;;;8.60;;
5491;SDS011;2768;53.540;10.224;2022-12-05T12:32:10;11.77;;;8.10;;
5491;SDS011;2768;53.540;10.224;2022-12-05T12:44:48;10.97;;;8.00;;
5491;SDS011;2768;53.540;10.224;2022-12-05T12:51:04;11.87;;;9.17;;
5491;SDS011;2768;53.540;10.224;2022-12-05T12:57:04;9.47;;;7.87;;
5491;SDS011;2768;53.540;10.224;2022-12-05T13:03:15;11.90;;;8.53;;
5491;SDS011;2768;53.540;10.224;2022-12-05T13:09:14;10.23;;;7.90;;
5491;SDS011;2768;53.540;10.224;2022-12-05T13:15:14;11.67;;;7.63;;
5491;SDS011;2768;53.540;10.224;2022-12-05T13:21:10;9.50;;;7.57;;
5491;SDS011;2768;53.540;10.224;2022-12-05T13:27:04;9.33;;;7.53;;
5491;SDS011;2768;53.540;10.224;2022-12-05T13:33:03;11.93;;;8.10;;
5491;SDS011;2768;53.540;10.224;2022-12-05T13:39:01;9.87;;;7.17;;
5491;SDS011;2768;53.540;10.224;2022-12-05T13:45:14;10.47;;;7.47;;
5491;SDS011;2768;53.540;10.224;2022-12-05T13:51:12;10.00;;;7.43;;
5491;SDS011;2768;53.540;10.224;2022-12-05T14:03:54;10.20;;;7.27;;
5491;SDS011;2768;53.540;10.224;2022-12-05T14:09:51;10.80;;;7.77;;
5491;SDS011;2768;53.540;10.224;2022-12-05T14:15:47;11.50;;;7.53;;
5491;SDS011;2768;53.540;10.224;2022-12-05T14:21:43;9.77;;;8.20;;
5491;SDS011;2768;53.540;10.224;2022-12-05T14:27:48;10.20;;;7.60;;
5491;SDS011;2768;53.540;10.224;2022-12-05T14:33:55;12.93;;;9.20;;
5491;SDS011;2768;53.540;10.224;2022-12-05T14:40:16;9.70;;;7.37;;
5491;SDS011;2768;53.540;10.224;2022-12-05T14:46:18;8.77;;;6.33;;
5491;SDS011;2768;53.540;10.224;2022-12-05T14:52:18;7.90;;;6.83;;
5491;SDS011;2768;53.540;10.224;2022-12-05T14:58:15;9.23;;;7.07;;
5491;SDS011;2768;53.540;10.224;2022-12-05T15:04:16;9.20;;;6.90;;
5491;SDS011;2768;53.540;10.224;2022-12-05T15:10:13;7.93;;;6.47;;
5491;SDS011;2768;53.540;10.224;2022-12-05T15:16:14;9.33;;;7.10;;
5491;SDS011;2768;53.540;10.224;2022-12-05T15:22:12;8.60;;;6.47;;
5491;SDS011;2768;53.540;10.224;2022-12-05T15:28:16;10.80;;;7.30;;
5491;SDS011;2768;53.540;10.224;2022-12-05T15:34:11;7.60;;;6.33;;
5491;SDS011;2768;53.540;10.224;2022-12-05T15:40:13;8.40;;;6.37;;
5491;SDS011;2768;53.540;10.224;2022-12-05T15:46:14;7.67;;;6.87;;
5491;SDS011;2768;53.540;10.224;2022-12-05T15:52:18;8.20;;;7.40;;
5491;SDS011;2768;53.540;10.224;2022-12-05T15:58:23;8.33;;;6.73;;
5491;SDS011;2768;53.540;10.224;2022-12-05T16:04:19;8.07;;;6.63;;
5491;SDS011;2768;53.540;10.224;2022-12-05T16:10:21;9.53;;;6.67;;
5491;SDS011;2768;53.540;10.224;2022-12-05T16:16:22;10.07;;;7.23;;
5491;SDS011;2768;53.540;10.224;2022-12-05T16:22:22;11.27;;;8.40;;
5491;SDS011;2768;53.540;10.224;2022-12-05T16:28:20;9.53;;;7.60;;
5491;SDS011;2768;53.540;10.224;2022-12-05T16:34:15;13.20;;;9.80;;
5491;SDS011;2768;53.540;10.224;2022-12-05T16:40:18;10.30;;;7.77;;
5491;SDS011;2768;53.540;10.224;2022-12-05T16:46:30;9.50;;;8.17;;
5491;SDS011;2768;53.540;10.224;2022-12-05T16:52:38;9.77;;;8.20;;
5491;SDS011;2768;53.540;10.224;2022-12-05T16:58:31;13.47;;;9.00;;
5491;SDS011;2768;53.540;10.224;2022-12-05T17:04:26;10.30;;;7.90;;
5491;SDS011;2768;53.540;10.224;2022-12-05T17:10:21;10.83;;;8.10;;
5491;SDS011;2768;53.540;10.224;2022-12-05T17:16:16;9.60;;;7.90;;
5491;SDS011;2768;53.540;10.224;2022-12-05T17:22:12;10.97;;;7.60;;
5491;SDS011;2768;53.540;10.224;2022-12-05T17:28:10;12.90;;;8.40;;
5491;SDS011;2768;53.540;10.224;2022-12-05T17:34:05;10.13;;;8.03;;
5491;SDS011;2768;53.540;10.224;2022-12-05T17:40:05;11.37;;;8.53;;
5491;SDS011;2768;53.540;10.224;2022-12-05T17:46:01;12.23;;;9.10;;
5491;SDS011;2768;53.540;10.224;2022-12-05T17:51:54;14.83;;;9.90;;
5491;SDS011;2768;53.540;10.224;2022-12-05T17:58:09;13.43;;;9.13;;
5491;SDS011;2768;53.540;10.224;2022-12-05T18:04:07;13.20;;;9.20;;
5491;SDS011;2768;53.540;10.224;2022-12-05T18:10:13;12.40;;;9.80;;
5491;SDS011;2768;53.540;10.224;2022-12-05T18:16:08;12.93;;;10.10;;
5491;SDS011;2768;53.540;10.224;2022-12-05T18:22:02;14.00;;;10.40;;
5491;SDS011;2768;53.540;10.224;2022-12-05T18:27:56;14.90;;;11.03;;
5491;SDS011;2768;53.540;10.224;2022-12-05T18:33:50;14.13;;;10.93;;
5491;SDS011;2768;53.540;10.224;2022-12-05T18:39:44;12.93;;;10.40;;
5491;SDS011;2768;53.540;10.224;2022-12-05T18:45:38;14.13;;;10.70;;
5491;SDS011;2768;53.540;10.224;2022-12-05T18:51:32;13.00;;;11.20;;
5491;SDS011;2768;53.540;10.224;2022-12-05T18:57:27;13.37;;;10.23;;
5491;SDS011;2768;53.540;10.224;2022-12-05T19:03:21;13.10;;;10.80;;
5491;SDS011;2768;53.540;10.224;2022-12-05T19:09:15;11.30;;;9.20;;
5491;SDS011;2768;53.540;10.224;2022-12-05T19:15:11;12.00;;;9.10;;
5491;SDS011;2768;53.540;10.224;2022-12-05T19:21:05;13.70;;;9.20;;
5491;SDS011;2768;53.540;10.224;2022-12-05T19:26:59;11.20;;;9.37;;
5491;SDS011;2768;53.540;10.224;2022-12-05T19:32:54;11.77;;;9.73;;
5491;SDS011;2768;53.540;10.224;2022-12-05T19:38:48;12.47;;;11.13;;
5491;SDS011;2768;53.540;10.224;2022-12-05T19:44:42;15.17;;;11.70;;
5491;SDS011;2768;53.540;10.224;2022-12-05T19:50:39;10.73;;;9.07;;
5491;SDS011;2768;53.540;10.224;2022-12-05T19:56:33;12.70;;;10.20;;
5491;SDS011;2768;53.540;10.224;2022-12-05T20:02:27;9.87;;;8.70;;
5491;SDS011;2768;53.540;10.224;2022-12-05T20:08:22;13.33;;;9.53;;
5491;SDS011;2768;53.540;10.224;2022-12-05T20:14:17;13.33;;;9.87;;
5491;SDS011;2768;53.540;10.224;2022-12-05T20:20:11;12.23;;;10.13;;
5491;SDS011;2768;53.540;10.224;2022-12-05T20:26:06;10.77;;;9.43;;
5491;SDS011;2768;53.540;10.224;2022-12-05T20:32:02;14.13;;;9.20;;
5491;SDS011;2768;53.540;10.224;2022-12-05T20:37:56;11.33;;;8.17;;
5491;SDS011;2768;53.540;10.224;2022-12-05T20:43:52;9.87;;;7.83;;
5491;SDS011;2768;53.540;10.224;2022-12-05T20:49:48;10.70;;;9.07;;
5491;SDS011;2768;53.540;10.224;2022-12-05T20:55:41;10.90;;;8.83;;
5491;SDS011;2768;53.540;10.224;2022-12-05T21:01:36;10.37;;;7.73;;
5491;SDS011;2768;53.540;10.224;2022-12-05T21:07:30;9.33;;;7.60;;
5491;SDS011;2768;53.540;10.224;2022-12-05T21:13:23;10.50;;;8.47;;
5491;SDS011;2768;53.540;10.224;2022-12-05T21:19:18;9.97;;;8.10;;
5491;SDS011;2768;53.540;10.224;2022-12-05T21:25:12;7.37;;;6.67;;
5491;SDS011;2768;53.540;10.224;2022-12-05T21:31:06;8.70;;;7.77;;
5491;SDS011;2768;53.540;10.224;2022-12-05T21:37:04;8.63;;;7.73;;
5491;SDS011;2768;53.540;10.224;2022-12-05T21:42:57;9.70;;;8.70;;
5491;SDS011;2768;53.540;10.224;2022-12-05T21:48:51;7.17;;;6.47;;
5491;SDS011;2768;53.540;10.224;2022-12-05T21:54:46;8.47;;;6.97;;
5491;SDS011;2768;53.540;10.224;2022-12-05T22:00:40;8.87;;;7.53;;
5491;SDS011;2768;53.540;10.224;2022-12-05T22:06:34;9.20;;;6.43;;
5491;SDS011;2768;53.540;10.224;2022-12-05T22:12:31;7.43;;;6.73;;
5491;SDS011;2768;53.540;10.224;2022-12-05T22:18:24;8.00;;;7.17;;
5491;SDS011;2768;53.540;10.224;2022-12-05T22:24:18;7.57;;;6.87;;
5491;SDS011;2768;53.540;10.224;2022-12-05T22:30:13;7.00;;;6.30;;
5491;SDS011;2768;53.540;10.224;2022-12-05T22:36:08;10.43;;;9.27;;
5491;SDS011;2768;53.540;10.224;2022-12-05T22:42:03;8.40;;;7.20;;
5491;SDS011;2768;53.540;10.224;2022-12-05T22:47:58;7.10;;;6.40;;
5491;SDS011;2768;53.540;10.224;2022-12-05T22:53:51;7.87;;;6.20;;
5491;SDS011;2768;53.540;10.224;2022-12-05T22:59:46;7.07;;;6.30;;
5491;SDS011;2768;53.540;10.224;2022-12-05T23:05:41;6.63;;;6.00;;
5491;SDS011;2768;53.540;10.224;2022-12-05T23:11:34;7.30;;;6.60;;
5491;SDS011;2768;53.540;10.224;2022-12-05T23:17:30;9.50;;;7.20;;
5491;SDS011;2768;53.540;10.224;2022-12-05T23:23:25;8.10;;;6.77;;
5491;SDS011;2768;53.540;10.224;2022-12-05T23:29:18;9.90;;;7.60;;
5491;SDS011;2768;53.540;10.224;2022-12-05T23:35:12;7.60;;;6.53;;
5491;SDS011;2768;53.540;10.224;2022-12-05T23:41:09;11.87;;;7.77;;
5491;SDS011;2768;53.540;10.224;2022-12-05T23:47:04;12.57;;;8.33;;
5491;SDS011;2768;53.540;10.224;2022-12-05T23:52:57;10.47;;;8.23;;
5491;SDS011;2768;53.540;10.224;2022-12-05T23:58:53;11.13;;;8.37;;
